Milan/Malpensa Airport

Airport
ICAO code: 
LIMC
IATA Code: 
MXP
Summary
ICAO Region: 
EUR
Territory: 
Location: 
Milan, Lombardy
Serving: 
Milan
Elevation: 
768 ft
Coordinates: 
Aerial View: 
45° 37' 45.555" N, 8° 43' 42.684" E
Metar
Observation
LIMC 021220Z 24005KT 200V280 9999 FEW020 08/04 Q0998 NOSIG
Station
Milano / Malpensa
Date/Time
2021-12-02 12:20:00
Wind direction
240°
Wind speed
05 kts
Lowest cloud amount
few clouds
Temperature
8°C
Dew point
4°C
Humidity
75%
QNH
998 hPa
Weather condition
n/a

Milano Malpensa Airport "City of Milan", former "Aeroporto Città di Busto Arsizio" is Milan's largest airport. It is located 39.97 km northwest of central Milan, Italy. It is one of 3 airports in the Milan metropolitan area.

Climatology

Humid “subtropical” climate (Köppen climate classification Cfa) - characterized by hot, humid summers and cool winters. Significant amounts of precipitation occur in all seasons in most areas. Winter rainfall (and sometimes snowfall) is associated with large storms that the westerlies steer from west to east. Most summer rainfall occurs during thunderstorms.

Runways

Designator Length Width Surface Rops
17L/35R 3920 60 ASP Yes/Yes
17R/35L 3920 60 ASP Yes/Yes
Airport map: 
Aerial View: 

SKYbrary Partners:

Safety knowledge contributed by: